Beecher, Wisconsin
Current Conditions -  °F | °C
As of 7:18 PM on Wednesday 24 Dec 2014 (Local Time) from KIMT Reporting Station
Overcast Overcast  
Wind Chill: 22°   Ceiling: 1400
Heat Index: 31°   Visibility: 10mi
Dew Point: 27°   Wind: 10mph
Humidity: 85%   Direction: 330°NNW
Pressure: 29.44"   Gusts: NA
Location:  45.6077°N, 87.9331°W
Report Text: KIMT 250118Z AUTO 33009KT 10SM OVC014 M01/M03 A2944 RMK AO2 T10061028
Loading
Personal Weather Stations






























Interactive Weather Map New forecast layout! Learn more

10-Day Weather Forecast

Advertisements
Track Severe Weather on mobile